createdAt,value
2023-03-01T00:00:05.944Z,14.47
2023-03-01T00:02:32.827Z,14.93
2023-03-01T00:04:59.501Z,15.07
2023-03-01T00:07:26.171Z,15.60
2023-03-01T00:09:52.811Z,15.93
2023-03-01T00:12:19.446Z,14.10
2023-03-01T00:14:46.167Z,15.23
2023-03-01T00:17:12.929Z,14.50
2023-03-01T00:19:39.650Z,13.63
2023-03-01T00:22:06.289Z,16.87
2023-03-01T00:24:32.980Z,16.17
2023-03-01T00:26:59.905Z,15.10
2023-03-01T00:29:27.099Z,17.40
2023-03-01T00:31:53.818Z,17.07
2023-03-01T00:34:20.462Z,18.50
2023-03-01T00:36:47.228Z,14.03
2023-03-01T00:39:16.081Z,17.73
2023-03-01T00:41:43.911Z,15.33
2023-03-01T00:44:11.307Z,16.23
2023-03-01T00:46:38.452Z,17.10
2023-03-01T00:49:05.613Z,16.37
2023-03-01T00:51:32.746Z,14.23
2023-03-01T00:54:02.407Z,14.53
2023-03-01T00:56:29.739Z,15.97
2023-03-01T00:58:56.860Z,17.27
2023-03-01T01:01:28.455Z,16.17
2023-03-01T01:03:58.429Z,16.30
2023-03-01T01:06:31.538Z,16.17
2023-03-01T01:08:58.473Z,15.17
2023-03-01T01:11:28.602Z,15.10
2023-03-01T01:13:55.714Z,16.50
2023-03-01T01:16:23.574Z,18.47
2023-03-01T01:18:50.586Z,17.03
2023-03-01T01:21:20.583Z,18.83
2023-03-01T01:23:48.150Z,18.20
2023-03-01T01:26:21.231Z,21.57
2023-03-01T01:28:48.783Z,20.60
2023-03-01T01:31:16.184Z,18.37
2023-03-01T01:33:43.102Z,22.27
2023-03-01T01:36:10.295Z,17.03
2023-03-01T01:38:38.361Z,19.37
2023-03-01T01:41:06.569Z,21.10
2023-03-01T01:43:39.382Z,16.53
2023-03-01T01:46:24.596Z,21.60
2023-03-01T01:48:56.722Z,20.60
2023-03-01T01:51:39.156Z,18.43
2023-03-01T01:54:38.458Z,16.93
2023-03-01T01:57:19.177Z,19.47
2023-03-01T01:59:52.133Z,20.20
2023-03-01T02:02:19.772Z,17.83
2023-03-01T02:04:48.460Z,18.70
2023-03-01T02:07:22.810Z,20.23
2023-03-01T02:09:51.896Z,23.03
2023-03-01T02:12:21.296Z,18.63
2023-03-01T02:14:48.025Z,18.57
2023-03-01T02:17:17.558Z,17.97
2023-03-01T02:20:25.580Z,17.40
2023-03-01T02:22:54.661Z,17.97
2023-03-01T02:25:45.462Z,18.60
2023-03-01T02:28:22.797Z,19.37
2023-03-01T02:31:09.861Z,20.47
2023-03-01T02:33:39.180Z,18.63
2023-03-01T02:36:15.461Z,20.97
2023-03-01T02:38:43.215Z,21.50
2023-03-01T02:41:12.784Z,21.70
2023-03-01T02:43:39.645Z,19.13
2023-03-01T02:46:20.067Z,19.33
2023-03-01T02:48:50.794Z,20.93
2023-03-01T02:51:41.053Z,20.77
2023-03-01T02:54:16.579Z,18.90
2023-03-01T02:56:44.645Z,19.13
2023-03-01T02:59:12.447Z,18.70
2023-03-01T03:01:39.083Z,23.00
2023-03-01T03:04:07.474Z,20.67
2023-03-01T03:06:34.454Z,21.30
2023-03-01T03:09:01.459Z,19.23
2023-03-01T03:11:28.540Z,21.57
2023-03-01T03:13:56.844Z,21.17
2023-03-01T03:16:23.787Z,20.30
2023-03-01T03:18:50.544Z,22.27
2023-03-01T03:21:17.545Z,21.97
2023-03-01T03:23:44.917Z,20.53
2023-03-01T03:26:14.210Z,22.57
2023-03-01T03:28:40.957Z,22.30
2023-03-01T03:31:08.979Z,23.93
2023-03-01T03:33:35.881Z,22.07
2023-03-01T03:36:02.621Z,19.70
2023-03-01T03:38:29.352Z,22.87
2023-03-01T03:41:05.317Z,25.80
2023-03-01T03:43:34.161Z,23.33
2023-03-01T03:46:01.498Z,24.40
2023-03-01T03:48:28.332Z,21.07
2023-03-01T03:50:56.858Z,21.67
2023-03-01T03:53:25.996Z,21.83
2023-03-01T03:55:53.066Z,21.23
2023-03-01T03:58:21.742Z,22.70
2023-03-01T04:00:53.190Z,22.60
2023-03-01T04:03:21.122Z,20.43
2023-03-01T04:05:48.249Z,24.37
2023-03-01T04:08:14.983Z,23.53
2023-03-01T04:10:44.512Z,22.93
2023-03-01T04:13:13.545Z,24.33
2023-03-01T04:15:40.634Z,24.47
2023-03-01T04:18:09.408Z,20.47
2023-03-01T04:20:36.576Z,22.30
2023-03-01T04:23:12.115Z,21.17
2023-03-01T04:25:39.965Z,22.80
2023-03-01T04:28:07.021Z,24.53
2023-03-01T04:30:36.676Z,21.43
2023-03-01T04:33:08.008Z,24.40
2023-03-01T04:35:35.733Z,21.23
2023-03-01T04:38:02.692Z,24.30
2023-03-01T04:40:30.584Z,20.13
2023-03-01T04:42:57.741Z,20.47
2023-03-01T04:45:24.525Z,24.27
2023-03-01T04:47:53.088Z,23.40
2023-03-01T04:50:24.439Z,23.20
2023-03-01T04:52:51.140Z,22.40
2023-03-01T04:55:17.879Z,21.30
2023-03-01T04:57:45.127Z,24.10
2023-03-01T05:00:23.350Z,24.47
2023-03-01T05:02:56.107Z,22.40
2023-03-01T05:05:34.772Z,21.53
2023-03-01T05:08:05.135Z,24.03
2023-03-01T05:10:34.418Z,22.47
2023-03-01T05:13:01.157Z,21.83
2023-03-01T05:15:29.996Z,23.10
2023-03-01T05:18:00.216Z,24.70
2023-03-01T05:20:29.440Z,25.03
2023-03-01T05:22:59.675Z,23.07
2023-03-01T05:25:27.141Z,22.57
2023-03-01T05:27:53.906Z,22.93
2023-03-01T05:30:20.805Z,24.67
2023-03-01T05:32:50.669Z,22.03
2023-03-01T05:35:18.964Z,25.23
2023-03-01T05:37:48.295Z,23.43
2023-03-01T05:40:19.087Z,23.53
2023-03-01T05:42:47.709Z,23.80
2023-03-01T05:45:15.984Z,22.70
2023-03-01T05:47:46.939Z,24.63
2023-03-01T05:50:29.134Z,24.93
2023-03-01T05:53:03.551Z,21.93
2023-03-01T05:55:31.617Z,23.83
2023-03-01T05:58:07.561Z,25.37
2023-03-01T06:00:36.009Z,23.23
2023-03-01T06:03:02.890Z,23.50
2023-03-01T06:05:30.590Z,24.27
2023-03-01T06:08:02.353Z,23.47
2023-03-01T06:10:30.156Z,19.70
2023-03-01T06:12:57.180Z,23.77
2023-03-01T06:15:24.090Z,24.27
2023-03-01T06:17:51.148Z,24.37
2023-03-01T06:20:22.887Z,25.27
2023-03-01T06:22:50.364Z,21.80
2023-03-01T06:25:19.366Z,26.43
2023-03-01T06:27:47.024Z,25.37
2023-03-01T06:30:15.161Z,22.73
2023-03-01T06:32:44.933Z,25.03
2023-03-01T06:35:13.305Z,25.77
2023-03-01T06:37:40.614Z,22.37
2023-03-01T06:40:09.100Z,23.73
2023-03-01T06:42:41.085Z,24.00
2023-03-01T06:45:09.144Z,25.03
2023-03-01T06:47:35.873Z,25.43
2023-03-01T06:50:03.709Z,24.23
2023-03-01T06:52:30.764Z,22.23
2023-03-01T06:54:57.498Z,23.67
2023-03-01T06:57:24.519Z,24.23
2023-03-01T06:59:51.202Z,25.40
2023-03-01T07:02:18.296Z,26.87
2023-03-01T07:04:45.023Z,24.17
2023-03-01T07:07:12.276Z,25.03
2023-03-01T07:09:39.042Z,23.73
2023-03-01T07:12:06.028Z,26.27
2023-03-01T07:14:32.912Z,26.13
2023-03-01T07:16:59.549Z,23.03
2023-03-01T07:19:26.301Z,23.80
2023-03-01T07:21:53.187Z,22.87
2023-03-01T07:24:19.882Z,22.83
2023-03-01T07:26:50.597Z,22.50
2023-03-01T07:29:17.889Z,26.20
2023-03-01T07:31:44.936Z,23.67
2023-03-01T07:34:11.798Z,23.00
2023-03-01T07:36:40.402Z,22.43
2023-03-01T07:39:07.527Z,22.83
2023-03-01T07:41:34.316Z,20.57
2023-03-01T07:44:01.263Z,24.70
2023-03-01T07:46:27.946Z,22.13
2023-03-01T07:48:54.773Z,22.30
2023-03-01T07:51:22.302Z,21.40
2023-03-01T07:53:49.467Z,26.37
2023-03-01T07:56:20.442Z,26.23
2023-03-01T07:58:48.174Z,24.77
2023-03-01T08:01:18.856Z,21.87
2023-03-01T08:03:45.647Z,25.17
2023-03-01T08:06:14.116Z,23.07
2023-03-01T08:08:40.870Z,22.23
2023-03-01T08:11:09.222Z,25.17
2023-03-01T08:13:35.938Z,23.80
2023-03-01T08:16:14.027Z,21.03
2023-03-01T08:18:41.112Z,21.17
2023-03-01T08:21:10.610Z,21.70
2023-03-01T08:23:37.350Z,24.70
2023-03-01T08:26:13.820Z,21.20
2023-03-01T08:28:41.111Z,22.30
2023-03-01T08:31:26.132Z,24.93
2023-03-01T08:33:58.702Z,23.97
2023-03-01T08:36:27.463Z,22.90
2023-03-01T08:38:54.344Z,21.30
2023-03-01T08:41:21.502Z,22.57
2023-03-01T08:43:48.368Z,19.67
2023-03-01T08:46:15.457Z,25.23
2023-03-01T08:48:44.049Z,22.47
2023-03-01T08:51:12.245Z,23.07
2023-03-01T08:53:39.217Z,23.13
2023-03-01T08:56:06.504Z,23.53
2023-03-01T08:58:33.551Z,22.50
2023-03-01T09:01:00.451Z,21.20
2023-03-01T09:03:27.836Z,20.60
2023-03-01T09:06:00.476Z,21.83
2023-03-01T09:08:27.203Z,24.40
2023-03-01T09:10:53.951Z,24.30
2023-03-01T09:13:20.574Z,22.67
2023-03-01T09:15:47.258Z,20.93
2023-03-01T09:18:13.883Z,23.47
2023-03-01T09:20:40.549Z,23.03
2023-03-01T09:23:07.652Z,22.90
2023-03-01T09:25:35.743Z,22.83
2023-03-01T09:28:02.417Z,17.93
2023-03-01T09:30:29.113Z,24.70
2023-03-01T09:32:57.861Z,19.77
2023-03-01T09:35:24.662Z,21.20
2023-03-01T09:37:52.306Z,21.13
2023-03-01T09:40:22.993Z,20.43
2023-03-01T09:43:17.081Z,20.23
2023-03-01T09:45:47.680Z,23.60
2023-03-01T09:48:19.146Z,25.77
2023-03-01T09:50:47.774Z,18.57
2023-03-01T09:53:24.222Z,23.20
2023-03-01T09:56:12.157Z,21.03
2023-03-01T09:59:13.685Z,23.80
2023-03-01T10:02:18.955Z,22.77
2023-03-01T10:04:51.524Z,21.63
2023-03-01T10:07:36.677Z,22.50
2023-03-01T10:10:24.899Z,22.30
2023-03-01T10:12:52.777Z,21.23
2023-03-01T10:15:26.208Z,22.40
2023-03-01T10:18:08.602Z,20.10
2023-03-01T10:20:53.398Z,20.67
2023-03-01T10:23:20.258Z,21.40
2023-03-01T10:26:08.198Z,21.87
2023-03-01T10:29:03.351Z,19.57
2023-03-01T10:31:41.339Z,23.70
2023-03-01T10:34:19.133Z,19.63
2023-03-01T10:36:52.207Z,21.37
2023-03-01T10:39:24.618Z,22.83
2023-03-01T10:41:57.528Z,19.43
2023-03-01T10:44:39.128Z,18.40
2023-03-01T10:47:06.128Z,21.30
2023-03-01T10:49:32.827Z,21.57
2023-03-01T10:52:18.812Z,23.50
2023-03-01T10:54:58.036Z,17.83
2023-03-01T10:57:37.092Z,21.33
2023-03-01T11:00:19.940Z,23.93
2023-03-01T11:02:52.335Z,19.40
2023-03-01T11:05:30.918Z,19.40
2023-03-01T11:07:59.535Z,18.30
2023-03-01T11:10:35.809Z,20.07
2023-03-01T11:13:18.451Z,21.97
2023-03-01T11:16:03.571Z,18.27
2023-03-01T11:18:46.349Z,18.93
2023-03-01T11:21:15.617Z,18.27
2023-03-01T11:23:45.293Z,20.87
2023-03-01T11:26:14.577Z,19.63
2023-03-01T11:28:43.616Z,19.23
2023-03-01T11:31:16.387Z,17.17
2023-03-01T11:34:00.804Z,21.73
2023-03-01T11:36:36.809Z,19.30
2023-03-01T11:39:14.327Z,19.73
2023-03-01T11:41:42.522Z,18.50
2023-03-01T11:44:19.006Z,21.60
2023-03-01T11:46:58.759Z,22.10
2023-03-01T11:49:55.773Z,18.73
2023-03-01T11:52:51.177Z,20.67
2023-03-01T11:55:32.868Z,20.57
2023-03-01T11:58:27.610Z,20.73
2023-03-01T12:01:29.725Z,18.30
2023-03-01T12:04:21.174Z,17.13
2023-03-01T12:07:02.492Z,17.47
2023-03-01T12:09:55.043Z,18.80
2023-03-01T12:12:40.691Z,19.93
2023-03-01T12:15:25.669Z,17.83
2023-03-01T12:18:22.838Z,18.73
2023-03-01T12:21:05.981Z,17.10
2023-03-01T12:23:58.984Z,17.87
2023-03-01T12:26:53.119Z,17.73
2023-03-01T12:29:55.480Z,19.93
2023-03-01T12:32:24.985Z,18.63
2023-03-01T12:35:01.092Z,17.00
2023-03-01T12:37:59.193Z,16.73
2023-03-01T12:40:34.929Z,16.87
2023-03-01T12:43:11.066Z,17.47
2023-03-01T12:46:11.073Z,16.73
2023-03-01T12:49:05.775Z,16.27
2023-03-01T12:51:35.705Z,16.83
2023-03-01T12:54:12.759Z,17.23
2023-03-01T12:56:40.644Z,17.00
2023-03-01T12:59:13.554Z,20.67
2023-03-01T13:01:53.277Z,17.30
2023-03-01T13:04:38.784Z,16.57
2023-03-01T13:07:25.783Z,18.63
2023-03-01T13:10:02.798Z,20.97
2023-03-01T13:12:51.624Z,19.17
2023-03-01T13:15:24.623Z,19.67
2023-03-01T13:17:55.639Z,18.60
2023-03-01T13:20:47.356Z,18.70
2023-03-01T13:23:22.911Z,18.40
2023-03-01T13:26:02.914Z,19.30
2023-03-01T13:28:38.561Z,18.43
2023-03-01T13:31:07.601Z,18.37
2023-03-01T13:33:42.389Z,19.60
2023-03-01T13:36:11.892Z,17.37
2023-03-01T13:38:58.258Z,17.13
2023-03-01T13:41:40.432Z,18.97
2023-03-01T13:44:20.833Z,17.77
2023-03-01T13:46:48.908Z,21.83
2023-03-01T13:49:19.305Z,17.77
2023-03-01T13:51:50.770Z,16.17
2023-03-01T13:54:31.654Z,16.47
2023-03-01T13:57:00.962Z,14.50
2023-03-01T13:59:28.077Z,15.23
2023-03-01T14:02:02.601Z,16.20
2023-03-01T14:04:38.498Z,13.97
2023-03-01T14:07:34.506Z,15.30
2023-03-01T14:10:06.558Z,15.23
2023-03-01T14:12:50.081Z,15.90
2023-03-01T14:15:23.852Z,15.87
2023-03-01T14:18:10.877Z,15.43
2023-03-01T14:20:46.413Z,14.27
2023-03-01T14:23:18.600Z,15.93
2023-03-01T14:25:54.939Z,15.37
2023-03-01T14:28:28.270Z,16.83
2023-03-01T14:30:57.467Z,17.43
2023-03-01T14:33:42.187Z,16.30
2023-03-01T14:36:11.497Z,16.27
2023-03-01T14:38:42.266Z,15.00
2023-03-01T14:41:22.729Z,15.67
2023-03-01T14:44:07.625Z,14.30
2023-03-01T14:46:41.768Z,14.10
2023-03-01T14:49:13.212Z,16.23
2023-03-01T14:51:43.360Z,17.13
2023-03-01T14:54:42.376Z,17.73
2023-03-01T14:57:16.735Z,16.70
2023-03-01T14:59:44.892Z,15.27
2023-03-01T15:02:18.540Z,16.57
2023-03-01T15:04:55.448Z,16.37
2023-03-01T15:07:30.448Z,17.20
2023-03-01T15:09:57.504Z,15.70
2023-03-01T15:12:30.329Z,14.90
2023-03-01T15:15:04.132Z,17.67
2023-03-01T15:17:39.119Z,15.03
2023-03-01T15:20:17.713Z,21.87
2023-03-01T15:22:49.576Z,15.13
2023-03-01T15:25:19.209Z,16.67
2023-03-01T15:27:51.023Z,16.53
2023-03-01T15:30:25.819Z,17.40
2023-03-01T15:33:20.390Z,15.90
2023-03-01T15:35:54.560Z,17.63
2023-03-01T15:38:51.613Z,15.00
2023-03-01T15:41:27.755Z,14.30
2023-03-01T15:43:56.564Z,16.33
2023-03-01T15:46:38.584Z,18.93
2023-03-01T15:49:54.421Z,16.10
2023-03-01T15:52:37.635Z,13.63
2023-03-01T15:55:07.895Z,14.23
2023-03-01T15:57:34.658Z,14.57
2023-03-01T16:00:01.887Z,18.50
2023-03-01T16:02:29.315Z,19.33
2023-03-01T16:04:57.372Z,15.33
2023-03-01T16:07:24.178Z,14.03
2023-03-01T16:09:50.954Z,15.20
2023-03-01T16:12:17.867Z,16.90
2023-03-01T16:14:44.641Z,15.13
2023-03-01T16:17:11.496Z,16.77
2023-03-01T16:19:38.876Z,16.77
2023-03-01T16:22:06.070Z,18.83
2023-03-01T16:24:32.789Z,15.40
2023-03-01T16:26:59.614Z,16.80
2023-03-01T16:29:26.998Z,18.30
2023-03-01T16:31:53.868Z,19.57
2023-03-01T16:34:22.834Z,18.97
2023-03-01T16:36:50.142Z,18.50
2023-03-01T16:39:17.708Z,20.50
2023-03-01T16:41:44.497Z,18.23
2023-03-01T16:44:11.201Z,18.40
2023-03-01T16:46:37.889Z,18.57
2023-03-01T16:49:04.675Z,18.53
2023-03-01T16:51:31.995Z,18.43
2023-03-01T16:53:58.854Z,18.87
2023-03-01T16:56:25.551Z,18.00
2023-03-01T16:58:52.262Z,18.43
2023-03-01T17:01:20.864Z,19.50
2023-03-01T17:03:49.597Z,20.67
2023-03-01T17:06:21.186Z,21.87
2023-03-01T17:08:47.929Z,20.87
2023-03-01T17:11:18.392Z,19.03
2023-03-01T17:13:45.794Z,22.90
2023-03-01T17:16:16.852Z,19.83
2023-03-01T17:18:44.275Z,19.60
2023-03-01T17:21:11.677Z,17.83
2023-03-01T17:23:40.770Z,19.80
2023-03-01T17:26:08.788Z,16.43
2023-03-01T17:28:37.473Z,22.13
2023-03-01T17:31:06.734Z,19.07
2023-03-01T17:33:34.080Z,18.43
2023-03-01T17:36:01.210Z,16.53
2023-03-01T17:38:28.209Z,17.90
2023-03-01T17:40:57.011Z,19.23
2023-03-01T17:43:24.226Z,22.03
2023-03-01T17:45:52.412Z,18.33
2023-03-01T17:48:19.213Z,19.87
2023-03-01T17:50:46.578Z,16.73
2023-03-01T17:53:13.966Z,20.20
2023-03-01T17:55:42.152Z,20.17
2023-03-01T17:58:10.837Z,19.17
2023-03-01T18:00:38.148Z,22.77
2023-03-01T18:03:05.383Z,19.77
2023-03-01T18:05:37.901Z,18.23
2023-03-01T18:08:04.888Z,19.80
2023-03-01T18:10:32.683Z,17.43
2023-03-01T18:12:59.617Z,20.30
2023-03-01T18:15:26.423Z,16.27
2023-03-01T18:17:53.218Z,17.53
2023-03-01T18:20:20.051Z,19.73
2023-03-01T18:22:47.423Z,19.33
2023-03-01T18:25:14.185Z,19.40
2023-03-01T18:27:41.052Z,18.20
2023-03-01T18:30:08.847Z,19.90
2023-03-01T18:32:35.586Z,17.07
2023-03-01T18:35:02.442Z,17.07
2023-03-01T18:37:29.160Z,18.10
2023-03-01T18:39:55.856Z,17.10
2023-03-01T18:42:22.651Z,17.93
2023-03-01T18:44:49.680Z,16.67
2023-03-01T18:47:17.203Z,18.60
2023-03-01T18:49:44.404Z,22.83
2023-03-01T18:52:11.389Z,18.77
2023-03-01T18:54:38.056Z,17.47
2023-03-01T18:57:04.844Z,18.47
2023-03-01T18:59:32.164Z,18.43
2023-03-01T19:01:58.992Z,21.57
2023-03-01T19:04:26.951Z,19.80
2023-03-01T19:06:53.975Z,19.97
2023-03-01T19:09:20.810Z,18.17
2023-03-01T19:11:47.865Z,19.60
2023-03-01T19:14:14.686Z,20.50
2023-03-01T19:16:41.619Z,17.80
2023-03-01T19:19:09.979Z,18.67
2023-03-01T19:21:36.777Z,20.40
2023-03-01T19:24:04.025Z,19.07
2023-03-01T19:26:31.644Z,19.53
2023-03-01T19:28:59.103Z,20.53
2023-03-01T19:31:29.133Z,17.63
2023-03-01T19:34:09.969Z,20.20
2023-03-01T19:36:38.214Z,20.43
2023-03-01T19:39:06.520Z,18.03
2023-03-01T19:41:33.485Z,21.07
2023-03-01T19:44:04.557Z,17.73
2023-03-01T19:46:32.510Z,17.60
2023-03-01T19:49:00.587Z,20.03
2023-03-01T19:51:27.926Z,18.93
2023-03-01T19:53:54.999Z,20.50
2023-03-01T19:56:22.728Z,19.73
2023-03-01T19:58:50.542Z,19.67
2023-03-01T20:01:19.828Z,22.23
2023-03-01T20:03:47.011Z,21.17
2023-03-01T20:06:20.308Z,21.30
2023-03-01T20:08:48.240Z,20.23
2023-03-01T20:11:16.952Z,20.67
2023-03-01T20:13:43.733Z,20.07
2023-03-01T20:16:10.670Z,21.33
2023-03-01T20:18:37.612Z,21.47
2023-03-01T20:21:09.313Z,19.07
2023-03-01T20:23:45.969Z,21.27
2023-03-01T20:26:19.196Z,24.87
2023-03-01T20:28:51.544Z,20.83
2023-03-01T20:31:19.785Z,23.03
2023-03-01T20:33:46.603Z,21.30
2023-03-01T20:36:13.996Z,22.27
2023-03-01T20:38:40.792Z,23.60
2023-03-01T20:41:10.113Z,27.20
2023-03-01T20:43:37.389Z,24.07
2023-03-01T20:46:08.955Z,24.87
2023-03-01T20:48:38.211Z,25.40
2023-03-01T20:51:06.420Z,26.40
2023-03-01T20:53:33.386Z,23.00
2023-03-01T20:56:05.093Z,26.33
2023-03-01T20:58:33.736Z,24.43
2023-03-01T21:01:00.963Z,23.57
2023-03-01T21:03:27.962Z,21.00
2023-03-01T21:05:59.670Z,26.20
2023-03-01T21:08:26.721Z,24.30
2023-03-01T21:10:54.889Z,25.27
2023-03-01T21:13:22.936Z,25.37
2023-03-01T21:15:57.340Z,21.13
2023-03-01T21:18:30.212Z,24.17
2023-03-01T21:21:01.205Z,24.47
2023-03-01T21:23:32.528Z,25.80
2023-03-01T21:26:11.684Z,24.77
2023-03-01T21:28:39.130Z,25.63
2023-03-01T21:31:12.325Z,23.27
2023-03-01T21:33:40.506Z,25.10
2023-03-01T21:36:09.593Z,24.60
2023-03-01T21:38:39.564Z,24.83
2023-03-01T21:41:11.588Z,24.53
2023-03-01T21:43:39.529Z,26.10
2023-03-01T21:46:14.196Z,27.73
2023-03-01T21:48:44.855Z,27.23
2023-03-01T21:51:14.772Z,26.93
2023-03-01T21:53:42.237Z,24.23
2023-03-01T21:56:09.741Z,23.67
2023-03-01T21:58:36.789Z,23.87
2023-03-01T22:01:11.760Z,26.03
2023-03-01T22:03:45.188Z,31.83
2023-03-01T22:06:19.210Z,27.10
2023-03-01T22:08:56.014Z,25.50
2023-03-01T22:11:24.075Z,25.37
2023-03-01T22:13:52.537Z,24.80
2023-03-01T22:16:22.028Z,26.00
2023-03-01T22:18:48.965Z,26.97
2023-03-01T22:21:16.344Z,26.43
2023-03-01T22:23:43.121Z,21.73
2023-03-01T22:26:25.349Z,28.33
2023-03-01T22:28:54.076Z,26.50
2023-03-01T22:31:21.845Z,25.90
2023-03-01T22:33:49.415Z,26.60
2023-03-01T22:36:16.636Z,24.83
2023-03-01T22:38:43.315Z,26.10
2023-03-01T22:41:10.281Z,27.20
2023-03-01T22:43:37.122Z,24.60
2023-03-01T22:46:16.184Z,25.33
2023-03-01T22:48:42.959Z,26.53
2023-03-01T22:51:18.993Z,26.53
2023-03-01T22:53:45.776Z,25.53
2023-03-01T22:56:21.315Z,28.13
2023-03-01T22:58:48.877Z,25.27
2023-03-01T23:01:21.519Z,26.67
2023-03-01T23:03:49.202Z,27.50
2023-03-01T23:06:18.552Z,29.30
2023-03-01T23:08:53.181Z,24.77
2023-03-01T23:11:21.078Z,30.13
2023-03-01T23:13:48.891Z,25.20
2023-03-01T23:16:16.109Z,26.27
2023-03-01T23:18:43.583Z,29.77
2023-03-01T23:21:16.568Z,27.33
2023-03-01T23:23:44.525Z,27.83
2023-03-01T23:26:11.223Z,23.80
2023-03-01T23:28:41.089Z,26.00
2023-03-01T23:31:17.036Z,27.60
2023-03-01T23:33:45.226Z,27.47
2023-03-01T23:36:18.158Z,28.67
2023-03-01T23:38:46.605Z,25.17
2023-03-01T23:41:15.399Z,27.30
2023-03-01T23:43:47.884Z,25.73
2023-03-01T23:46:16.098Z,30.57
2023-03-01T23:48:43.947Z,28.23
2023-03-01T23:51:11.993Z,27.90
2023-03-01T23:53:42.350Z,27.47
2023-03-01T23:56:12.688Z,24.27
2023-03-01T23:58:39.386Z,26.47
